Time;durP1;ratioP1;P1;durP2;ratioP2;P2;SDS_P1;SDS_P2;PMS_P1;PMS_P2;Temp;Humidity;BMP_temperature;BMP_pressure;BME280_temperature;BME280_humidity;BME280_pressure;Samples;Min_cycle;Max_cycle;Signal;HPM_P1;HPM_P2
2021/12/25 00:00:43;;;;;;;4.40;3.27;;;0.70;99.90;;;;;;5060824;28;20591;-68
2021/12/25 00:03:32;;;;;;;4.93;2.60;;;0.70;99.90;;;;;;5073408;28;20772;-67
2021/12/25 00:06:24;;;;;;;2.47;1.93;;;0.70;99.90;;;;;;5070160;28;20215;-66
2021/12/25 00:09:13;;;;;;;4.13;2.33;;;0.60;99.90;;;;;;5073924;28;20884;-65
2021/12/25 00:12:01;;;;;;;3.40;2.03;;;0.50;99.90;;;;;;5060940;28;20219;-68
2021/12/25 00:14:50;;;;;;;3.13;1.80;;;0.60;99.90;;;;;;5069569;28;21156;-67
2021/12/25 00:17:38;;;;;;;3.93;2.10;;;0.50;99.90;;;;;;5077111;28;20223;-66
2021/12/25 00:20:27;;;;;;;4.33;2.30;;;0.60;99.90;;;;;;5060464;28;20233;-67
2021/12/25 00:23:17;;;;;;;6.20;2.57;;;0.60;99.90;;;;;;5076499;28;20235;-68
2021/12/25 00:26:11;;;;;;;4.37;2.17;;;0.60;99.90;;;;;;5073126;28;20796;-69
2021/12/25 00:29:06;;;;;;;5.17;2.00;;;0.50;99.90;;;;;;5075690;28;20223;-66
2021/12/25 00:32:10;;;;;;;4.20;1.90;;;0.40;99.90;;;;;;5074143;28;20254;-68
2021/12/25 00:34:59;;;;;;;3.77;2.00;;;0.40;99.90;;;;;;5054357;28;20253;-67
2021/12/25 00:37:48;;;;;;;4.10;2.50;;;0.30;99.90;;;;;;5074972;28;20212;-67
2021/12/25 00:40:38;;;;;;;4.13;2.57;;;0.40;99.90;;;;;;5070218;28;20229;-67
2021/12/25 00:43:27;;;;;;;4.87;2.77;;;0.40;99.90;;;;;;5068206;28;20208;-68
2021/12/25 00:46:15;;;;;;;4.13;2.50;;;0.40;99.90;;;;;;5054900;28;20223;-67
2021/12/25 00:49:04;;;;;;;4.23;2.60;;;0.30;99.90;;;;;;5059568;28;20251;-67
2021/12/25 00:51:53;;;;;;;4.43;2.60;;;0.30;99.90;;;;;;5057451;28;20884;-66
2021/12/25 00:54:46;;;;;;;5.13;2.33;;;0.40;99.90;;;;;;5057677;28;20222;-67
2021/12/25 00:57:37;;;;;;;6.07;3.23;;;0.40;99.90;;;;;;5060734;28;20847;-67
2021/12/25 01:00:26;;;;;;;5.97;3.73;;;0.30;99.90;;;;;;5070143;28;20220;-67
2021/12/25 01:03:15;;;;;;;4.03;2.63;;;0.40;99.90;;;;;;5062693;28;20381;-68
2021/12/25 01:06:04;;;;;;;4.77;2.97;;;0.40;99.90;;;;;;5060691;28;20308;-66
2021/12/25 01:08:53;;;;;;;5.73;3.00;;;0.30;99.90;;;;;;5061851;28;20388;-66
2021/12/25 01:11:47;;;;;;;4.33;2.47;;;0.20;99.90;;;;;;5060444;28;20246;-67
2021/12/25 01:14:42;;;;;;;5.63;2.80;;;0.20;99.90;;;;;;5059893;28;20238;-66
2021/12/25 01:18:51;;;;;;;3.70;2.17;;;0.20;99.90;;;;;;5074315;28;20246;-67
2021/12/25 01:30:54;;;;;;;3.17;2.10;;;-0.10;99.90;;;;;;5059873;28;20219;-66
2021/12/25 01:37:26;;;;;;;2.77;1.80;;;-0.20;99.90;;;;;;4973860;28;20225;-66
2021/12/25 01:40:55;;;;;;;4.83;2.10;;;-0.30;99.90;;;;;;5052891;28;20316;-66
2021/12/25 01:47:48;;;;;;;3.13;1.90;;;-0.30;99.90;;;;;;5031448;28;20285;-65
2021/12/25 01:50:38;;;;;;;3.37;1.53;;;-0.50;99.90;;;;;;5054582;28;20256;-66
2021/12/25 01:53:27;;;;;;;4.13;1.53;;;-0.50;99.90;;;;;;5056365;28;21180;-66
2021/12/25 01:56:16;;;;;;;3.90;1.60;;;-0.60;99.90;;;;;;5058942;28;20229;-67
2021/12/25 01:59:06;;;;;;;2.90;1.47;;;-0.50;99.90;;;;;;5055652;28;20874;-66
2021/12/25 02:01:55;;;;;;;3.63;1.77;;;-0.50;99.90;;;;;;5055308;28;20266;-66
2021/12/25 02:04:45;;;;;;;3.37;1.77;;;-0.50;99.90;;;;;;5056690;28;20228;-66
2021/12/25 02:07:34;;;;;;;3.43;1.13;;;-0.50;99.90;;;;;;5053348;28;20237;-65
2021/12/25 02:10:22;;;;;;;4.77;1.73;;;-0.70;99.90;;;;;;5054892;28;20277;-65
2021/12/25 02:13:13;;;;;;;4.10;1.70;;;-0.80;99.90;;;;;;5058773;28;20245;-65
2021/12/25 02:16:07;;;;;;;3.03;1.30;;;-0.90;99.90;;;;;;5066562;28;20231;-65
2021/12/25 02:19:01;;;;;;;4.27;1.43;;;-1.00;99.90;;;;;;5059818;28;20263;-65
2021/12/25 02:22:13;;;;;;;4.80;1.70;;;-1.10;99.90;;;;;;5057739;28;20246;-66
2021/12/25 02:25:01;;;;;;;3.90;1.50;;;-1.10;99.90;;;;;;5053501;28;20220;-64
2021/12/25 02:27:50;;;;;;;2.57;1.47;;;-1.20;99.90;;;;;;5056164;28;20225;-65
2021/12/25 02:30:39;;;;;;;5.50;1.53;;;-1.20;99.90;;;;;;5054024;28;20212;-65
2021/12/25 02:33:29;;;;;;;2.93;1.20;;;-1.20;99.90;;;;;;5051972;28;20217;-66
2021/12/25 02:36:18;;;;;;;3.77;1.37;;;-1.20;99.90;;;;;;5056353;28;20595;-66
2021/12/25 02:39:11;;;;;;;4.10;1.47;;;-1.30;99.90;;;;;;5042834;28;20217;-65
2021/12/25 02:41:59;;;;;;;2.77;1.47;;;-1.30;99.90;;;;;;5046833;28;20213;-66
2021/12/25 02:44:48;;;;;;;2.10;1.20;;;-1.30;99.90;;;;;;5043096;28;20228;-66
2021/12/25 02:47:42;;;;;;;4.30;1.20;;;-1.30;99.90;;;;;;5041504;28;20593;-66
2021/12/25 02:50:33;;;;;;;4.23;1.40;;;-1.40;99.90;;;;;;5038805;28;20286;-64
2021/12/25 02:53:23;;;;;;;3.47;1.43;;;-1.40;99.90;;;;;;5041481;28;20295;-68
2021/12/25 02:56:13;;;;;;;3.23;1.50;;;-1.50;99.90;;;;;;5039710;28;20225;-65
2021/12/25 02:59:04;;;;;;;3.70;1.50;;;-1.50;99.90;;;;;;5048686;28;20307;-65
2021/12/25 03:02:09;;;;;;;3.90;1.40;;;-1.60;99.90;;;;;;5043801;28;20307;-67
2021/12/25 03:04:58;;;;;;;3.73;1.50;;;-1.50;99.90;;;;;;5044944;28;20910;-65
2021/12/25 03:07:48;;;;;;;5.63;1.80;;;-1.60;99.90;;;;;;5044714;28;20331;-63
2021/12/25 03:10:38;;;;;;;8.13;1.80;;;-1.60;99.90;;;;;;5041614;28;20263;-66
2021/12/25 03:13:34;;;;;;;6.30;1.70;;;-1.70;99.90;;;;;;5041294;28;20689;-65
2021/12/25 03:16:27;;;;;;;6.67;2.50;;;-1.60;99.90;;;;;;5052884;28;20221;-66
2021/12/25 03:19:25;;;;;;;5.73;1.70;;;-1.70;99.90;;;;;;5039649;28;20217;-65
2021/12/25 03:22:16;;;;;;;5.80;2.30;;;-1.80;99.90;;;;;;5038808;28;20221;-66
2021/12/25 03:25:06;;;;;;;6.27;1.97;;;-1.80;99.90;;;;;;5039998;28;20876;-65
2021/12/25 03:27:56;;;;;;;4.63;1.70;;;-1.90;99.90;;;;;;5036306;28;20227;-66
2021/12/25 03:30:46;;;;;;;8.73;2.83;;;-1.90;99.90;;;;;;5040188;28;20228;-70
2021/12/25 03:33:35;;;;;;;7.87;2.37;;;-1.90;99.90;;;;;;5041163;28;20845;-67
2021/12/25 03:36:24;;;;;;;4.17;1.80;;;-2.00;99.90;;;;;;5038536;28;20220;-67
2021/12/25 03:39:14;;;;;;;7.13;2.17;;;-2.00;99.90;;;;;;5043040;28;20235;-66
2021/12/25 03:42:03;;;;;;;8.07;2.20;;;-2.00;99.90;;;;;;5039513;28;20228;-67
2021/12/25 03:44:51;;;;;;;4.57;1.80;;;-1.90;99.90;;;;;;5035227;28;20220;-66
2021/12/25 03:47:42;;;;;;;5.23;1.63;;;-2.10;99.90;;;;;;5041764;28;20297;-66
2021/12/25 03:57:37;;;;;;;6.63;1.90;;;-2.10;99.90;;;;;;5038773;28;20212;-65
2021/12/25 04:00:00;;;;;;;5.73;1.93;;;-2.20;99.90;;;;;;5038920;28;20239;-65
2021/12/25 04:02:58;;;;;;;5.60;1.67;;;-2.30;99.90;;;;;;5038535;28;20228;-66
2021/12/25 04:05:55;;;;;;;6.23;1.60;;;-2.30;99.90;;;;;;5048594;28;20225;-65
2021/12/25 04:08:46;;;;;;;3.37;1.73;;;-2.50;99.90;;;;;;5050133;28;20293;-66
2021/12/25 04:11:35;;;;;;;6.43;1.77;;;-2.40;99.90;;;;;;5041314;28;20230;-66
2021/12/25 04:14:24;;;;;;;3.87;1.60;;;-2.50;99.90;;;;;;5042540;28;20212;-66
2021/12/25 04:17:13;;;;;;;5.93;1.90;;;-2.60;99.90;;;;;;5035798;28;20236;-67
2021/12/25 04:20:04;;;;;;;3.90;1.60;;;-2.50;99.90;;;;;;5044743;28;20840;-65
2021/12/25 04:22:58;;;;;;;3.97;1.70;;;-2.70;99.90;;;;;;5054002;28;20345;-66
2021/12/25 04:25:46;;;;;;;7.10;1.73;;;-2.70;99.90;;;;;;5040699;28;20254;-64
2021/12/25 04:28:41;;;;;;;4.07;1.73;;;-2.70;99.90;;;;;;5038997;28;20235;-64
2021/12/25 04:31:46;;;;;;;4.47;1.73;;;-2.70;99.90;;;;;;5037799;28;20240;-65
2021/12/25 05:01:41;;;;;;;6.27;1.80;;;-3.00;99.90;;;;;;5043088;28;20732;-67
2021/12/25 05:03:35;;;;;;;8.47;2.77;;;-2.90;99.90;;;;;;5041195;28;20215;-67
2021/12/25 05:06:42;;;;;;;4.40;2.93;;;-3.10;99.90;;;;;;5041698;28;20235;-67
2021/12/25 05:09:32;;;;;;;7.37;3.20;;;-3.00;99.90;;;;;;5036057;28;20789;-67
2021/12/25 05:12:21;;;;;;;6.37;3.00;;;-3.10;99.90;;;;;;5041573;28;20220;-66
2021/12/25 05:15:10;;;;;;;6.07;3.37;;;-3.10;99.90;;;;;;5041631;28;20246;-65
2021/12/25 05:17:59;;;;;;;9.43;3.63;;;-3.00;99.90;;;;;;5037951;28;20710;-66
2021/12/25 05:20:48;;;;;;;6.00;3.07;;;-3.00;99.90;;;;;;5037249;28;20382;-66
2021/12/25 05:23:38;;;;;;;7.10;3.03;;;-3.10;99.90;;;;;;5036108;28;20269;-66
2021/12/25 05:26:28;;;;;;;7.23;3.57;;;-3.00;99.90;;;;;;5040794;28;20309;-67
2021/12/25 05:29:23;;;;;;;8.43;3.30;;;-3.20;99.90;;;;;;5041767;28;20721;-66
2021/12/25 05:32:11;;;;;;;7.57;3.30;;;-3.20;99.90;;;;;;5037642;28;20224;-66
2021/12/25 05:35:24;;;;;;;5.90;2.90;;;-3.30;99.90;;;;;;5033298;28;20612;-66
2021/12/25 05:38:25;;;;;;;5.43;2.80;;;-3.40;99.90;;;;;;5038285;28;20223;-67
2021/12/25 05:41:31;;;;;;;8.20;2.70;;;-3.40;99.90;;;;;;5039212;28;20325;-65
2021/12/25 05:44:28;;;;;;;8.40;2.40;;;-3.40;99.90;;;;;;5053401;28;20543;-66
2021/12/25 05:47:25;;;;;;;6.53;2.57;;;-3.40;99.90;;;;;;5042127;28;20223;-66
2021/12/25 05:50:20;;;;;;;8.63;2.63;;;-3.30;99.90;;;;;;5036969;28;20215;-66
2021/12/25 05:53:17;;;;;;;4.17;2.20;;;-3.40;99.90;;;;;;5052315;28;20289;-66
2021/12/25 05:56:37;;;;;;;8.73;2.60;;;-3.50;99.90;;;;;;5047259;28;20222;-66
2021/12/25 05:59:58;;;;;;;8.60;2.10;;;-3.70;99.90;;;;;;5017513;28;20354;-64
2021/12/25 06:03:05;;;;;;;4.97;2.37;;;-3.70;99.90;;;;;;5033177;28;20238;-66
2021/12/25 06:05:57;;;;;;;7.77;2.73;;;-3.90;99.90;;;;;;5042641;28;20229;-65
2021/12/25 06:08:45;;;;;;;4.90;2.30;;;-3.90;99.90;;;;;;5036738;28;20224;-65
2021/12/25 06:11:40;;;;;;;5.93;1.93;;;-3.90;99.90;;;;;;5040031;28;20237;-64
2021/12/25 06:14:29;;;;;;;10.07;2.93;;;-3.80;99.90;;;;;;5044082;28;20233;-66
2021/12/25 06:17:44;;;;;;;6.67;2.33;;;-3.90;99.90;;;;;;5045813;28;20324;-67
2021/12/25 06:20:40;;;;;;;6.00;2.33;;;-3.90;99.90;;;;;;5046905;28;20703;-66
2021/12/25 06:23:47;;;;;;;9.87;3.03;;;-3.90;99.90;;;;;;5039680;28;20246;-65
2021/12/25 06:27:22;;;;;;;5.93;2.33;;;-4.10;99.90;;;;;;5049479;28;20245;-66
2021/12/25 06:30:31;;;;;;;5.07;2.20;;;-4.20;99.90;;;;;;5045308;28;20566;-66
2021/12/25 06:33:35;;;;;;;6.23;2.93;;;-4.20;99.90;;;;;;5036357;28;20229;-65
2021/12/25 06:36:53;;;;;;;7.47;2.57;;;-4.20;99.90;;;;;;5047321;28;20299;-64
2021/12/25 06:40:01;;;;;;;4.80;2.43;;;-4.10;99.90;;;;;;5041909;28;20225;-67
2021/12/25 06:43:01;;;;;;;5.87;2.37;;;-4.10;99.90;;;;;;5042180;28;20882;-65
2021/12/25 06:45:50;;;;;;;5.63;2.70;;;-4.10;99.90;;;;;;5034259;28;20691;-66
2021/12/25 06:48:41;;;;;;;6.53;2.77;;;-4.10;99.90;;;;;;5034584;28;20325;-66
2021/12/25 06:51:34;;;;;;;6.87;3.20;;;-4.10;99.90;;;;;;5042716;28;20267;-66
2021/12/25 06:54:40;;;;;;;8.23;2.80;;;-4.10;99.90;;;;;;5040000;28;20228;-66
2021/12/25 06:57:54;;;;;;;7.40;2.93;;;-4.00;99.90;;;;;;5059884;28;20237;-66
2021/12/25 07:00:44;;;;;;;7.97;3.40;;;-4.00;99.90;;;;;;5037152;28;20903;-68
2021/12/25 07:03:33;;;;;;;8.00;2.97;;;-4.00;99.90;;;;;;5042152;28;20219;-66
2021/12/25 07:06:44;;;;;;;8.30;2.57;;;-4.10;99.90;;;;;;5036376;28;20681;-66
2021/12/25 07:09:56;;;;;;;9.83;3.10;;;-4.10;99.90;;;;;;5043712;28;20456;-68
2021/12/25 07:12:54;;;;;;;6.27;3.23;;;-4.10;99.90;;;;;;5044038;28;20315;-64
2021/12/25 07:15:54;;;;;;;9.83;3.40;;;-4.10;99.90;;;;;;5041178;28;20233;-67
2021/12/25 07:19:03;;;;;;;11.13;3.70;;;-4.10;99.90;;;;;;5043074;28;20221;-65
2021/12/25 07:22:24;;;;;;;10.73;3.20;;;-4.20;99.90;;;;;;5030621;28;20218;-66
2021/12/25 07:25:33;;;;;;;12.00;3.60;;;-4.20;99.90;;;;;;5040237;28;20223;-66
2021/12/25 07:28:24;;;;;;;8.57;3.13;;;-4.20;99.90;;;;;;5041440;28;20230;-65
2021/12/25 07:31:14;;;;;;;8.47;3.30;;;-4.30;99.90;;;;;;5031145;28;20219;-66
2021/12/25 07:34:03;;;;;;;7.70;3.00;;;-4.10;99.90;;;;;;5031380;28;20280;-66
2021/12/25 07:36:52;;;;;;;7.63;3.53;;;-4.00;99.90;;;;;;5007082;28;20587;-66
2021/12/25 07:39:41;;;;;;;9.50;3.43;;;-4.20;99.90;;;;;;5019279;28;20241;-67
2021/12/25 07:42:29;;;;;;;7.30;3.30;;;-4.30;99.90;;;;;;5022188;28;20242;-66
2021/12/25 07:45:42;;;;;;;8.07;3.23;;;-4.20;99.90;;;;;;5019495;28;20601;-67
2021/12/25 07:48:33;;;;;;;11.37;3.67;;;-4.20;99.90;;;;;;5015979;28;20586;-68
2021/12/25 07:51:22;;;;;;;14.93;4.30;;;-4.10;99.90;;;;;;5020656;28;20229;-67
2021/12/25 07:54:11;;;;;;;9.37;3.60;;;-4.10;99.90;;;;;;5018454;28;20217;-66
2021/12/25 07:57:00;;;;;;;12.07;3.73;;;-4.10;99.90;;;;;;5023994;28;20232;-65
2021/12/25 07:59:49;;;;;;;10.03;4.33;;;-4.10;99.90;;;;;;5032704;28;20229;-67
2021/12/25 08:02:38;;;;;;;11.30;4.13;;;-4.20;99.90;;;;;;5022124;28;20313;-65
2021/12/25 08:05:29;;;;;;;13.13;4.57;;;-4.20;99.90;;;;;;5029309;28;20219;-66
2021/12/25 08:08:17;;;;;;;10.33;4.97;;;-4.10;99.90;;;;;;5015102;28;20715;-66
2021/12/25 08:11:06;;;;;;;11.57;5.27;;;-4.10;99.90;;;;;;5023132;28;20230;-67
2021/12/25 08:13:55;;;;;;;17.77;5.57;;;-4.00;99.90;;;;;;5031912;28;20217;-65
2021/12/25 08:16:44;;;;;;;13.30;5.17;;;-4.00;99.90;;;;;;5022103;28;20249;-65
2021/12/25 08:19:32;;;;;;;11.07;4.97;;;-4.00;99.90;;;;;;5023525;28;20259;-63
2021/12/25 08:22:44;;;;;;;11.77;5.23;;;-4.00;99.90;;;;;;5017486;28;20227;-65
2021/12/25 08:25:52;;;;;;;12.17;4.90;;;-4.20;99.90;;;;;;5045458;28;20241;-65
2021/12/25 08:28:59;;;;;;;13.20;5.07;;;-4.10;99.90;;;;;;5028633;28;20777;-65
2021/12/25 08:32:09;;;;;;;14.40;4.77;;;-4.20;99.90;;;;;;5024609;28;20309;-66
2021/12/25 08:34:57;;;;;;;12.70;5.10;;;-4.10;99.90;;;;;;5037402;28;20225;-67
2021/12/25 08:37:54;;;;;;;13.37;5.10;;;-4.20;99.90;;;;;;5007855;28;20214;-66
2021/12/25 08:40:44;;;;;;;12.77;5.53;;;-4.20;99.90;;;;;;5032865;28;20216;-65
2021/12/25 08:43:44;;;;;;;17.80;6.00;;;-4.30;99.90;;;;;;5038543;28;20301;-67
2021/12/25 08:46:45;;;;;;;9.77;4.97;;;-4.20;99.90;;;;;;5041312;28;20231;-67
2021/12/25 08:49:37;;;;;;;10.50;4.50;;;-4.10;99.90;;;;;;5023958;28;20289;-66
2021/12/25 08:52:27;;;;;;;14.10;5.57;;;-4.00;99.90;;;;;;5039003;28;20226;-67
2021/12/25 08:55:17;;;;;;;17.60;5.90;;;-4.20;99.90;;;;;;5039752;28;20219;-68
2021/12/25 08:58:06;;;;;;;14.33;5.43;;;-4.20;99.90;;;;;;5041253;28;20213;-66
2021/12/25 09:00:57;;;;;;;14.00;5.57;;;-4.20;99.90;;;;;;5036384;28;20222;-67
2021/12/25 09:03:49;;;;;;;13.73;5.70;;;-4.10;99.90;;;;;;5034654;28;20241;-68
2021/12/25 09:06:39;;;;;;;14.70;6.03;;;-4.00;99.90;;;;;;5018923;28;20632;-66
2021/12/25 09:09:27;;;;;;;16.00;5.70;;;-4.00;99.90;;;;;;5022579;28;20249;-66
2021/12/25 09:12:19;;;;;;;15.83;6.47;;;-3.90;99.90;;;;;;5031293;28;20222;-67
2021/12/25 09:15:09;;;;;;;15.40;6.13;;;-3.80;99.90;;;;;;5041048;28;20225;-66
2021/12/25 09:17:58;;;;;;;16.23;6.40;;;-3.90;99.90;;;;;;5035841;28;20229;-66
2021/12/25 09:20:47;;;;;;;20.30;6.23;;;-3.80;99.90;;;;;;5038556;28;20223;-67
2021/12/25 09:23:35;;;;;;;14.63;6.20;;;-3.80;99.90;;;;;;5043658;28;20227;-66
2021/12/25 09:26:27;;;;;;;13.93;5.80;;;-3.70;99.90;;;;;;5040690;28;20239;-64
2021/12/25 09:29:17;;;;;;;12.40;6.07;;;-3.80;99.90;;;;;;5042622;28;20227;-66
2021/12/25 09:32:06;;;;;;;15.60;6.83;;;-3.70;99.90;;;;;;5047033;28;20333;-67
2021/12/25 09:34:55;;;;;;;17.23;6.40;;;-3.60;99.90;;;;;;5038407;28;20844;-67
2021/12/25 09:37:44;;;;;;;16.37;6.70;;;-3.50;99.90;;;;;;5043764;28;20242;-66
2021/12/25 09:40:33;;;;;;;14.53;6.23;;;-3.60;99.90;;;;;;5044455;28;20224;-65
2021/12/25 09:43:22;;;;;;;16.43;6.33;;;-3.50;99.90;;;;;;5038577;28;20251;-68
2021/12/25 09:46:12;;;;;;;17.07;7.23;;;-3.50;99.90;;;;;;5044452;28;20235;-63
2021/12/25 09:49:01;;;;;;;16.40;6.50;;;-3.40;99.90;;;;;;5047225;28;20229;-65
2021/12/25 09:51:50;;;;;;;19.07;7.97;;;-3.40;99.90;;;;;;5045252;28;20630;-65
2021/12/25 09:54:38;;;;;;;17.67;7.50;;;-3.40;99.90;;;;;;5045134;28;20581;-65
2021/12/25 09:57:27;;;;;;;14.47;7.10;;;-3.30;99.90;;;;;;5046703;28;20315;-65
2021/12/25 10:00:19;;;;;;;16.00;7.43;;;-3.20;99.90;;;;;;5047920;28;20725;-67
2021/12/25 10:03:09;;;;;;;17.20;7.80;;;-3.20;99.90;;;;;;5048540;28;20225;-65
2021/12/25 10:05:58;;;;;;;15.00;6.70;;;-3.10;99.90;;;;;;5043928;28;20982;-65
2021/12/25 10:08:46;;;;;;;17.23;7.80;;;-3.10;99.90;;;;;;5035043;28;21738;-65
2021/12/25 10:11:35;;;;;;;16.57;7.60;;;-3.10;99.90;;;;;;5042841;28;20242;-66
2021/12/25 10:14:25;;;;;;;19.30;7.40;;;-3.30;99.90;;;;;;5043986;28;20636;-67
2021/12/25 10:17:16;;;;;;;21.03;8.43;;;-3.20;99.90;;;;;;5062679;28;20218;-66
2021/12/25 10:20:23;;;;;;;20.23;9.57;;;-3.10;99.90;;;;;;5040943;28;20230;-66
2021/12/25 10:23:14;;;;;;;25.10;10.00;;;-3.10;99.90;;;;;;5044873;28;20610;-65
2021/12/25 10:26:03;;;;;;;20.87;8.57;;;-3.20;99.90;;;;;;5063761;28;20232;-67
2021/12/25 10:28:54;;;;;;;19.17;8.83;;;-3.00;99.90;;;;;;5043264;28;20299;-66
2021/12/25 10:31:43;;;;;;;22.87;9.13;;;-3.00;99.90;;;;;;5043417;28;20235;-65
2021/12/25 10:34:32;;;;;;;21.47;8.77;;;-2.90;99.90;;;;;;5045175;28;20225;-67
2021/12/25 10:37:23;;;;;;;19.43;10.00;;;-2.90;99.90;;;;;;5043135;28;20216;-67
2021/12/25 10:40:24;;;;;;;20.10;9.13;;;-2.80;99.90;;;;;;5038970;28;20280;-66
2021/12/25 10:43:21;;;;;;;20.73;10.10;;;-2.80;99.90;;;;;;5044281;28;20241;-67
2021/12/25 10:46:10;;;;;;;29.17;13.83;;;-2.80;99.90;;;;;;5042079;28;20242;-66
2021/12/25 10:48:59;;;;;;;18.00;8.93;;;-2.70;99.90;;;;;;5039605;28;20225;-71
2021/12/25 10:51:48;;;;;;;21.93;9.30;;;-2.70;99.90;;;;;;5048520;28;20228;-66
2021/12/25 10:54:42;;;;;;;20.57;9.20;;;-2.80;99.90;;;;;;5040316;28;20232;-67
2021/12/25 10:57:34;;;;;;;20.23;9.63;;;-2.80;99.90;;;;;;5042393;28;20216;-67
2021/12/25 11:00:30;;;;;;;20.83;8.43;;;-2.80;99.90;;;;;;5050070;28;20226;-67
2021/12/25 11:03:33;;;;;;;19.00;8.57;;;-2.80;99.90;;;;;;5040197;28;20274;-67
2021/12/25 11:06:22;;;;;;;16.13;8.23;;;-2.80;99.90;;;;;;5042375;28;20216;-67
2021/12/25 11:09:11;;;;;;;24.40;9.30;;;-2.90;99.90;;;;;;5038756;28;20221;-66
2021/12/25 11:12:22;;;;;;;16.87;7.83;;;-2.90;99.90;;;;;;5039469;28;20221;-68
2021/12/25 11:15:18;;;;;;;24.10;8.67;;;-2.80;99.90;;;;;;5044820;28;20311;-66
2021/12/25 11:18:08;;;;;;;22.40;9.40;;;-2.80;99.90;;;;;;5041888;28;20216;-66
2021/12/25 11:20:59;;;;;;;22.13;9.27;;;-2.70;99.90;;;;;;5041518;28;20235;-65
2021/12/25 11:23:47;;;;;;;25.90;11.60;;;-2.70;99.90;;;;;;5050173;28;20235;-65
2021/12/25 11:26:37;;;;;;;20.70;9.63;;;-2.60;99.90;;;;;;5040939;28;20841;-65
2021/12/25 11:29:30;;;;;;;21.60;9.60;;;-2.60;99.90;;;;;;5046266;28;20219;-65
2021/12/25 11:32:21;;;;;;;19.60;9.17;;;-2.60;99.90;;;;;;5049337;28;20238;-67
2021/12/25 11:35:11;;;;;;;19.80;9.00;;;-2.60;99.90;;;;;;5043000;28;20229;-68
2021/12/25 11:38:00;;;;;;;23.50;10.03;;;-2.60;99.90;;;;;;5040861;28;20223;-68
2021/12/25 11:40:52;;;;;;;19.40;8.37;;;-2.60;99.90;;;;;;5041093;28;20244;-67
2021/12/25 11:43:46;;;;;;;19.40;8.83;;;-2.60;99.90;;;;;;5035892;28;20232;-66
2021/12/25 11:46:41;;;;;;;17.90;8.80;;;-2.60;99.90;;;;;;5046319;28;20677;-67
2021/12/25 11:49:30;;;;;;;19.33;8.93;;;-2.60;99.90;;;;;;5043240;28;20767;-65
2021/12/25 11:52:19;;;;;;;22.63;9.40;;;-2.60;99.90;;;;;;5042834;28;20228;-67
2021/12/25 11:55:30;;;;;;;19.93;8.83;;;-2.50;99.90;;;;;;5041922;28;20720;-66
2021/12/25 11:58:39;;;;;;;20.07;8.30;;;-2.40;99.90;;;;;;5037489;28;20224;-67
2021/12/25 12:01:33;;;;;;;20.73;8.03;;;-2.40;99.90;;;;;;5040320;28;20315;-66
2021/12/25 12:04:26;;;;;;;18.40;8.57;;;-2.30;99.90;;;;;;5038589;28;20220;-68
2021/12/25 12:07:18;;;;;;;19.40;7.80;;;-2.40;99.90;;;;;;5065088;28;20230;-69
2021/12/25 12:10:51;;;;;;;20.93;8.77;;;-2.50;99.90;;;;;;5038305;28;20534;-66
2021/12/25 12:14:19;;;;;;;19.80;8.17;;;-2.40;99.90;;;;;;5041751;28;20217;-67
2021/12/25 12:17:30;;;;;;;16.27;8.37;;;-2.30;99.90;;;;;;5040060;28;20303;-66
2021/12/25 12:20:40;;;;;;;18.03;8.80;;;-2.40;99.90;;;;;;5038542;28;20277;-66
2021/12/25 12:23:38;;;;;;;17.67;8.33;;;-2.30;99.90;;;;;;5036602;28;20216;-65
2021/12/25 12:26:51;;;;;;;19.20;8.70;;;-2.30;99.90;;;;;;5036545;28;20230;-69
2021/12/25 12:29:45;;;;;;;18.13;7.50;;;-2.20;99.90;;;;;;5041778;28;20221;-66
2021/12/25 12:32:37;;;;;;;18.97;9.07;;;-2.30;99.90;;;;;;5040602;28;20713;-64
2021/12/25 12:35:34;;;;;;;19.87;7.93;;;-2.40;99.90;;;;;;5038595;28;20227;-65
2021/12/25 12:38:37;;;;;;;21.57;7.93;;;-2.40;99.90;;;;;;5041293;28;20221;-68
2021/12/25 12:41:32;;;;;;;19.13;7.77;;;-2.40;99.90;;;;;;5049947;28;20216;-66
2021/12/25 12:44:29;;;;;;;19.87;8.13;;;-2.40;99.90;;;;;;5044745;28;20239;-65
2021/12/25 12:47:19;;;;;;;26.67;10.97;;;-2.50;99.90;;;;;;5051135;28;20219;-66
2021/12/25 12:50:12;;;;;;;21.87;8.37;;;-2.50;99.90;;;;;;5036607;28;20254;-68
2021/12/25 12:53:06;;;;;;;26.60;9.27;;;-2.40;99.90;;;;;;5043093;28;20233;-65
2021/12/25 12:56:05;;;;;;;24.83;9.33;;;-2.50;99.90;;;;;;5042763;28;20219;-66
2021/12/25 12:58:56;;;;;;;23.70;9.43;;;-2.40;99.90;;;;;;5036941;28;20744;-66
2021/12/25 13:01:45;;;;;;;23.60;9.03;;;-2.50;99.90;;;;;;5044169;28;20224;-66
2021/12/25 13:04:42;;;;;;;17.70;7.93;;;-2.40;99.90;;;;;;5042529;28;20246;-66
2021/12/25 13:07:34;;;;;;;19.47;8.50;;;-2.30;99.90;;;;;;5037164;28;20224;-66
2021/12/25 13:10:28;;;;;;;16.63;8.50;;;-2.40;99.90;;;;;;5035697;28;20681;-67
2021/12/25 13:13:21;;;;;;;17.30;8.80;;;-2.40;99.90;;;;;;5047982;28;20741;-66
2021/12/25 13:16:12;;;;;;;21.57;8.83;;;-2.40;99.90;;;;;;5049440;28;20220;-66
2021/12/25 13:19:05;;;;;;;18.47;8.57;;;-2.40;99.90;;;;;;5037227;28;20304;-66
2021/12/25 13:21:54;;;;;;;20.27;9.53;;;-2.40;99.90;;;;;;5042877;28;20307;-67
2021/12/25 13:24:43;;;;;;;18.30;8.30;;;-2.40;99.90;;;;;;5035556;28;20220;-67
2021/12/25 13:27:31;;;;;;;20.00;8.63;;;-2.40;99.90;;;;;;5045294;28;20232;-66
2021/12/25 13:30:21;;;;;;;21.23;9.97;;;-2.40;99.90;;;;;;5040722;28;20227;-67
2021/12/25 13:33:12;;;;;;;21.33;8.80;;;-2.40;99.90;;;;;;5037645;28;20853;-66
2021/12/25 13:36:05;;;;;;;21.60;9.13;;;-2.50;99.90;;;;;;5045674;28;20224;-66
2021/12/25 13:38:56;;;;;;;19.87;8.17;;;-2.40;99.90;;;;;;5040529;28;20292;-66
2021/12/25 13:41:47;;;;;;;24.27;8.23;;;-2.30;99.90;;;;;;5037121;28;20791;-67
2021/12/25 13:44:37;;;;;;;17.27;8.40;;;-2.40;99.90;;;;;;5038025;28;20383;-65
2021/12/25 13:47:29;;;;;;;23.97;7.70;;;-2.40;99.90;;;;;;5037227;28;20756;-67
2021/12/25 13:50:18;;;;;;;22.77;7.70;;;-2.40;99.90;;;;;;5036003;28;20581;-67
2021/12/25 13:53:23;;;;;;;23.57;8.73;;;-2.40;99.90;;;;;;5039077;28;20240;-65
2021/12/25 13:56:13;;;;;;;24.17;9.13;;;-2.40;99.90;;;;;;5035279;28;20225;-67
2021/12/25 13:59:13;;;;;;;22.93;8.80;;;-2.50;99.90;;;;;;5042796;28;20505;-68
2021/12/25 14:02:05;;;;;;;23.07;9.53;;;-2.50;99.90;;;;;;5041824;28;20228;-66
2021/12/25 14:04:57;;;;;;;17.80;8.57;;;-2.60;99.90;;;;;;5036774;28;20224;-66
2021/12/25 14:07:46;;;;;;;22.27;7.97;;;-2.50;99.90;;;;;;5031047;28;20217;-66
2021/12/25 14:10:38;;;;;;;26.87;9.10;;;-2.60;99.90;;;;;;5038077;28;20227;-65
2021/12/25 14:13:34;;;;;;;24.57;8.93;;;-2.50;99.90;;;;;;5038394;28;20221;-66
2021/12/25 14:16:23;;;;;;;18.90;8.53;;;-2.70;99.90;;;;;;5041597;28;20318;-67
2021/12/25 14:19:13;;;;;;;25.30;9.47;;;-2.60;99.90;;;;;;5038968;28;20221;-67
2021/12/25 14:22:05;;;;;;;23.37;9.50;;;-2.60;99.90;;;;;;5035268;28;20236;-65
2021/12/25 14:24:54;;;;;;;24.27;9.47;;;-2.80;99.90;;;;;;5037232;28;20233;-65
2021/12/25 14:27:43;;;;;;;21.97;9.37;;;-2.60;99.90;;;;;;5040132;28;20296;-67
2021/12/25 14:30:33;;;;;;;24.97;10.77;;;-2.70;99.90;;;;;;5035570;28;20518;-67
2021/12/25 14:33:21;;;;;;;25.17;11.10;;;-2.70;99.90;;;;;;5039781;28;20307;-67
2021/12/25 14:36:13;;;;;;;35.53;12.10;;;-2.70;99.90;;;;;;5041764;28;20233;-66
2021/12/25 14:39:03;;;;;;;21.80;10.60;;;-2.70;99.90;;;;;;5042065;28;20232;-66
2021/12/25 14:41:52;;;;;;;25.33;9.57;;;-2.70;99.90;;;;;;5046589;28;20301;-66
2021/12/25 14:44:41;;;;;;;23.33;9.73;;;-2.70;99.90;;;;;;5041051;28;20228;-67
2021/12/25 14:47:29;;;;;;;24.70;10.20;;;-2.70;99.90;;;;;;5047841;28;20739;-66
2021/12/25 14:50:20;;;;;;;26.47;10.10;;;-2.80;99.90;;;;;;5037552;28;20222;-67
2021/12/25 14:53:13;;;;;;;30.83;11.53;;;-2.80;99.90;;;;;;5038061;28;20217;-67
2021/12/25 14:56:06;;;;;;;24.23;10.50;;;-2.90;99.90;;;;;;5045590;28;20239;-66
2021/12/25 14:58:57;;;;;;;30.40;11.87;;;-2.90;99.90;;;;;;5041717;28;20220;-67
2021/12/25 15:01:47;;;;;;;28.00;11.30;;;-2.80;99.90;;;;;;5038946;28;20213;-68
2021/12/25 15:04:38;;;;;;;29.03;11.00;;;-2.90;99.90;;;;;;5044538;28;20227;-66
2021/12/25 15:07:38;;;;;;;30.30;11.67;;;-2.90;99.90;;;;;;5042423;28;20608;-66
2021/12/25 15:10:27;;;;;;;27.83;12.13;;;-2.90;99.90;;;;;;5041035;28;20233;-65
2021/12/25 15:13:19;;;;;;;30.80;12.73;;;-2.90;99.90;;;;;;5048409;28;20234;-65
2021/12/25 15:16:09;;;;;;;28.83;11.80;;;-2.90;99.90;;;;;;5040173;28;20235;-65
2021/12/25 15:18:58;;;;;;;36.37;12.83;;;-3.00;99.90;;;;;;5040360;28;20749;-66
2021/12/25 15:21:48;;;;;;;30.97;12.43;;;-3.00;99.90;;;;;;5037895;28;20233;-67
2021/12/25 15:24:38;;;;;;;31.00;12.67;;;-3.10;99.90;;;;;;5040523;28;20223;-66
2021/12/25 15:27:29;;;;;;;32.60;12.57;;;-3.10;99.90;;;;;;5042195;28;20218;-67
2021/12/25 15:30:22;;;;;;;26.53;11.93;;;-3.10;99.90;;;;;;5040293;28;20224;-66
2021/12/25 15:33:13;;;;;;;29.50;12.37;;;-3.10;99.90;;;;;;5040699;28;20224;-66
2021/12/25 15:36:12;;;;;;;24.73;11.30;;;-3.20;99.90;;;;;;5034598;28;21179;-67
2021/12/25 15:39:13;;;;;;;26.90;11.83;;;-3.10;99.90;;;;;;5039112;28;20240;-65
2021/12/25 15:42:04;;;;;;;25.53;11.33;;;-3.20;99.90;;;;;;5037795;28;20232;-67
2021/12/25 15:44:53;;;;;;;27.37;10.97;;;-3.10;99.90;;;;;;5043070;28;20316;-65
2021/12/25 15:47:45;;;;;;;26.33;11.03;;;-3.20;99.90;;;;;;5041156;28;20283;-66